createdAt,value
2022-10-31T00:01:18.948Z,95754.78
2022-10-31T00:03:45.503Z,95753.88
2022-10-31T00:06:12.203Z,95756.44
2022-10-31T00:08:38.724Z,95756.75
2022-10-31T00:11:09.148Z,95753.75
2022-10-31T00:13:35.801Z,95748.78
2022-10-31T00:16:02.333Z,95751.41
2022-10-31T00:18:28.849Z,95757.47
2022-10-31T00:21:03.377Z,95747.03
2022-10-31T00:23:30.068Z,95747.59
2022-10-31T00:26:02.723Z,95752.44
2022-10-31T00:28:31.347Z,95750.69
2022-10-31T00:31:06.603Z,95751.34
2022-10-31T00:33:35.808Z,95749.81
2022-10-31T00:36:02.399Z,95746.03
2022-10-31T00:38:28.983Z,95742.56
2022-10-31T00:40:55.551Z,95749.81
2022-10-31T00:43:22.144Z,95744.94
2022-10-31T00:45:48.716Z,95739.72
2022-10-31T00:48:15.447Z,95738.25
2022-10-31T00:50:42.527Z,95741.50
2022-10-31T00:53:09.459Z,95754.38
2022-10-31T00:55:36.172Z,95756.91
2022-10-31T00:58:03.179Z,95740.25
2022-10-31T01:00:30.159Z,95740.31
2022-10-31T01:02:57.048Z,95746.28
2022-10-31T01:05:24.586Z,95749.09
2022-10-31T01:07:51.288Z,95732.00
2022-10-31T01:10:19.423Z,95740.59
2022-10-31T01:12:48.791Z,95731.47
2022-10-31T01:15:21.029Z,95729.22
2022-10-31T01:17:48.689Z,95731.84
2022-10-31T01:20:16.705Z,95722.38
2022-10-31T01:22:43.244Z,95726.28
2022-10-31T01:25:10.600Z,95731.38
2022-10-31T01:27:37.121Z,95727.53
2022-10-31T01:30:05.184Z,95732.69
2022-10-31T01:32:31.829Z,95728.13
2022-10-31T01:34:58.361Z,95720.59
2022-10-31T01:37:24.949Z,95719.91
2022-10-31T01:39:51.433Z,95720.91
2022-10-31T01:42:20.699Z,95726.56
2022-10-31T01:45:01.950Z,95726.72
2022-10-31T01:47:36.807Z,95722.38
2022-10-31T01:50:10.814Z,95708.78
2022-10-31T01:52:41.574Z,95721.91
2022-10-31T01:55:16.467Z,95711.41
2022-10-31T01:57:46.254Z,95710.38
2022-10-31T02:00:13.504Z,95705.91
2022-10-31T02:02:41.205Z,95704.06
2022-10-31T02:05:13.364Z,95708.53
2022-10-31T02:08:01.181Z,95703.88
2022-10-31T02:10:28.592Z,95705.91
2022-10-31T02:12:58.155Z,95692.59
2022-10-31T02:15:25.623Z,95696.97
2022-10-31T02:17:52.768Z,95702.34
2022-10-31T02:20:23.197Z,95696.75
2022-10-31T02:22:49.731Z,95686.75
2022-10-31T02:25:41.454Z,95681.91
2022-10-31T02:30:57.340Z,95692.34
2022-10-31T02:33:37.008Z,95693.94
2022-10-31T02:36:19.513Z,95690.00
2022-10-31T02:39:09.692Z,95683.78
2022-10-31T02:42:03.768Z,95682.97
2022-10-31T02:44:52.817Z,95690.41
2022-10-31T02:47:28.471Z,95682.34
2022-10-31T02:50:00.843Z,95680.09
2022-10-31T02:52:32.806Z,95679.44
2022-10-31T02:55:00.096Z,95683.59
2022-10-31T02:57:31.023Z,95672.00
2022-10-31T03:00:04.708Z,95678.91
2022-10-31T03:03:05.357Z,95678.84
2022-10-31T03:06:16.637Z,95673.56
2022-10-31T03:08:55.856Z,95673.91
2022-10-31T03:11:29.141Z,95665.22
2022-10-31T03:14:07.872Z,95663.44
2022-10-31T03:16:49.405Z,95676.28
2022-10-31T03:19:21.794Z,95672.19
2022-10-31T03:22:07.709Z,95671.44
2022-10-31T03:24:38.629Z,95667.16
2022-10-31T03:27:09.587Z,95676.69
2022-10-31T03:29:38.256Z,95670.28
2022-10-31T03:32:11.920Z,95664.91
2022-10-31T03:34:40.076Z,95665.25
2022-10-31T03:37:09.938Z,95668.25
2022-10-31T03:39:40.009Z,95658.03
2022-10-31T03:42:12.236Z,95659.78
2022-10-31T03:44:42.016Z,95662.78
2022-10-31T03:47:08.607Z,95655.19
2022-10-31T03:49:36.290Z,95656.00
2022-10-31T03:52:21.732Z,95656.78
2022-10-31T03:54:56.115Z,95649.94
2022-10-31T03:57:28.997Z,95653.59
2022-10-31T04:00:02.674Z,95647.53
2022-10-31T04:02:33.349Z,95648.22
2022-10-31T04:05:01.262Z,95632.88
2022-10-31T04:07:36.062Z,95648.88
2022-10-31T04:10:08.873Z,95652.09
2022-10-31T04:12:37.037Z,95656.16
2022-10-31T04:15:06.887Z,95659.09
2022-10-31T04:17:38.880Z,95657.63
2022-10-31T04:20:06.257Z,95649.72
2022-10-31T04:22:32.855Z,95647.91
2022-10-31T04:24:59.510Z,95651.28
2022-10-31T04:27:26.057Z,95653.59
2022-10-31T04:29:52.626Z,95656.72
2022-10-31T04:32:19.329Z,95657.16
2022-10-31T04:34:45.816Z,95653.53
2022-10-31T04:37:12.389Z,95662.53
2022-10-31T04:39:38.975Z,95658.06
2022-10-31T04:42:05.525Z,95661.13
2022-10-31T04:44:32.016Z,95647.16
2022-10-31T04:46:58.585Z,95655.31
2022-10-31T04:49:25.110Z,95653.78
2022-10-31T04:51:51.625Z,95654.41
2022-10-31T04:54:18.724Z,95646.28
2022-10-31T04:56:45.232Z,95643.75
2022-10-31T04:59:11.760Z,95638.84
2022-10-31T05:01:38.503Z,95637.88
2022-10-31T05:04:05.118Z,95639.41
2022-10-31T05:06:31.598Z,95639.81
2022-10-31T05:08:58.126Z,95623.81
2022-10-31T05:11:24.673Z,95631.25
2022-10-31T05:13:51.156Z,95635.50
2022-10-31T05:16:17.820Z,95632.41
2022-10-31T05:18:44.309Z,95618.13
2022-10-31T05:21:10.936Z,95625.13
2022-10-31T05:23:37.782Z,95630.03
2022-10-31T05:26:04.409Z,95616.81
2022-10-31T05:28:30.974Z,95622.47
2022-10-31T05:30:57.887Z,95620.22
2022-10-31T05:33:24.480Z,95614.97
2022-10-31T05:35:50.977Z,95613.06
2022-10-31T05:38:17.576Z,95624.25
2022-10-31T05:40:44.177Z,95616.72
2022-10-31T05:43:10.704Z,95619.66
2022-10-31T05:45:37.319Z,95615.22
2022-10-31T05:48:04.682Z,95612.91
2022-10-31T05:50:32.589Z,95618.53
2022-10-31T05:53:04.851Z,95623.50
2022-10-31T05:55:32.045Z,95607.63
2022-10-31T05:57:59.144Z,95611.38
2022-10-31T06:00:28.845Z,95614.66
2022-10-31T06:03:03.333Z,95609.06
2022-10-31T06:05:31.141Z,95620.72
2022-10-31T06:07:58.864Z,95612.06
2022-10-31T06:10:26.107Z,95615.22
2022-10-31T06:12:52.765Z,95609.94
2022-10-31T06:15:23.689Z,95615.22
2022-10-31T06:18:03.162Z,95611.06
2022-10-31T06:20:30.058Z,95604.72
2022-10-31T06:22:56.684Z,95617.47
2022-10-31T06:25:23.437Z,95622.06
2022-10-31T06:27:49.988Z,95610.38
2022-10-31T06:30:16.573Z,95613.94
2022-10-31T06:32:43.180Z,95616.16
2022-10-31T06:35:10.121Z,95603.25
2022-10-31T06:37:36.762Z,95616.72
2022-10-31T06:40:03.769Z,95619.19
2022-10-31T06:42:30.269Z,95621.50
2022-10-31T06:44:56.743Z,95619.66
2022-10-31T06:47:23.553Z,95618.06
2022-10-31T06:49:50.052Z,95613.22
2022-10-31T06:52:16.812Z,95615.56
2022-10-31T06:54:43.460Z,95618.28
2022-10-31T06:57:09.968Z,95609.00
2022-10-31T06:59:36.488Z,95618.53
2022-10-31T07:02:03.288Z,95627.66
2022-10-31T07:04:29.896Z,95621.34
2022-10-31T07:06:56.371Z,95624.75
2022-10-31T07:09:23.028Z,95619.94
2022-10-31T07:11:49.544Z,95621.56
2022-10-31T07:14:16.094Z,95641.97
2022-10-31T07:16:42.659Z,95634.06
2022-10-31T07:19:09.141Z,95637.22
2022-10-31T07:21:35.691Z,95634.59
2022-10-31T07:24:02.260Z,95641.06
2022-10-31T07:26:28.935Z,95639.22
2022-10-31T07:28:55.428Z,95636.63
2022-10-31T07:31:22.155Z,95636.63
2022-10-31T07:33:48.820Z,95645.72
2022-10-31T07:36:15.340Z,95649.53
2022-10-31T07:38:42.084Z,95650.31
2022-10-31T07:41:08.732Z,95647.31
2022-10-31T07:43:35.305Z,95651.88
2022-10-31T07:46:01.910Z,95655.28
2022-10-31T07:48:28.413Z,95647.75
2022-10-31T07:50:56.313Z,95659.84
2022-10-31T07:53:22.828Z,95660.25
2022-10-31T07:55:49.397Z,95658.72
2022-10-31T07:58:17.831Z,95651.16
2022-10-31T08:00:46.934Z,95647.34
2022-10-31T08:03:16.160Z,95657.16
2022-10-31T08:05:43.485Z,95651.50
2022-10-31T08:08:10.405Z,95657.13
2022-10-31T08:10:37.620Z,95654.06
2022-10-31T08:13:08.151Z,95657.81
2022-10-31T08:15:38.309Z,95657.03
2022-10-31T08:18:05.594Z,95656.31
2022-10-31T08:20:32.204Z,95657.13
2022-10-31T08:23:03.318Z,95652.19
2022-10-31T08:25:35.336Z,95649.91
2022-10-31T08:28:06.555Z,95650.59
2022-10-31T08:30:35.566Z,95654.78
2022-10-31T08:33:17.916Z,95657.72
2022-10-31T08:35:45.153Z,95659.16
2022-10-31T08:38:13.201Z,95650.06
2022-10-31T08:40:40.252Z,95649.25
2022-10-31T08:43:12.227Z,95646.84
2022-10-31T08:45:39.083Z,95632.44
2022-10-31T08:48:07.593Z,95637.72
2022-10-31T08:50:36.356Z,95632.69
2022-10-31T08:53:08.060Z,95628.34
2022-10-31T08:55:39.072Z,95626.06
2022-10-31T08:58:07.846Z,95621.38
2022-10-31T09:00:35.409Z,95627.84
2022-10-31T09:03:07.812Z,95623.22
2022-10-31T09:05:34.370Z,95623.22
2022-10-31T09:08:03.058Z,95626.59
2022-10-31T09:10:31.513Z,95622.19
2022-10-31T09:13:03.224Z,95612.88
2022-10-31T09:15:29.947Z,95606.34
2022-10-31T09:17:56.533Z,95593.59
2022-10-31T09:20:23.829Z,95595.63
2022-10-31T09:23:00.820Z,95607.69
2022-10-31T09:25:28.488Z,95596.19
2022-10-31T09:28:00.145Z,95601.81
2022-10-31T09:30:28.993Z,95606.75
2022-10-31T09:32:59.970Z,95604.56
2022-10-31T09:35:27.495Z,95601.50
2022-10-31T09:37:58.049Z,95588.91
2022-10-31T09:40:32.639Z,95580.44
2022-10-31T09:43:13.940Z,95574.81
2022-10-31T09:45:50.604Z,95579.28
2022-10-31T09:48:44.631Z,95586.09
2022-10-31T09:51:17.305Z,95594.03
2022-10-31T09:53:48.068Z,95581.19
2022-10-31T09:56:18.885Z,95572.88
2022-10-31T09:58:59.496Z,95592.09
2022-10-31T10:01:54.534Z,95598.69
2022-10-31T10:04:42.995Z,95588.13
2022-10-31T10:07:17.937Z,95592.50
2022-10-31T10:09:45.872Z,95590.06
2022-10-31T10:12:20.766Z,95597.00
2022-10-31T10:15:19.816Z,95593.38
2022-10-31T10:17:46.241Z,95590.88
2022-10-31T10:20:24.498Z,95583.41
2022-10-31T10:23:00.442Z,95582.47
2022-10-31T10:25:40.651Z,95579.09
2022-10-31T10:28:28.430Z,95577.81
2022-10-31T10:31:04.812Z,95577.66
2022-10-31T10:33:40.164Z,95567.28
2022-10-31T10:36:13.445Z,95564.66
2022-10-31T10:39:00.540Z,95571.50
2022-10-31T10:41:34.531Z,95566.81
2022-10-31T10:44:01.302Z,95563.53
2022-10-31T10:47:07.958Z,95559.13
2022-10-31T10:49:53.173Z,95550.72
2022-10-31T10:55:24.392Z,95546.13
2022-10-31T10:57:58.393Z,95534.72
2022-10-31T11:00:32.116Z,95530.91
2022-10-31T11:02:59.244Z,95542.47
2022-10-31T11:05:29.537Z,95533.22
2022-10-31T11:07:56.123Z,95545.44
2022-10-31T11:10:23.169Z,95544.53
2022-10-31T11:13:24.480Z,95543.19
2022-10-31T11:16:13.355Z,95540.13
2022-10-31T11:18:46.367Z,95530.13
2022-10-31T11:21:23.256Z,95521.66
2022-10-31T11:23:49.767Z,95520.59
2022-10-31T11:26:22.406Z,95506.28
2022-10-31T11:28:59.734Z,95493.63
2022-10-31T11:31:28.028Z,95483.78
2022-10-31T11:34:03.673Z,95490.13
2022-10-31T11:36:43.204Z,95481.13
2022-10-31T11:39:18.675Z,95480.63
2022-10-31T11:41:46.269Z,95466.22
2022-10-31T11:44:29.326Z,95463.63
2022-10-31T11:47:04.359Z,95457.50
2022-10-31T11:49:39.647Z,95460.16
2022-10-31T11:52:25.392Z,95452.06
2022-10-31T11:55:03.223Z,95452.66
2022-10-31T11:57:43.104Z,95447.97
2022-10-31T12:00:30.874Z,95445.66
2022-10-31T12:03:34.578Z,95441.72
2022-10-31T12:06:06.500Z,95441.63
2022-10-31T12:08:36.880Z,95433.28
2022-10-31T12:11:36.685Z,95422.25
2022-10-31T12:14:24.809Z,95417.94
2022-10-31T12:17:17.209Z,95401.09
2022-10-31T12:19:57.623Z,95410.28
2022-10-31T12:22:52.967Z,95404.44
2022-10-31T12:25:25.476Z,95405.75
2022-10-31T12:28:06.516Z,95402.44
2022-10-31T12:30:58.703Z,95410.16
2022-10-31T12:34:02.822Z,95403.09
2022-10-31T12:37:01.141Z,95387.78
2022-10-31T12:40:15.656Z,95381.47
2022-10-31T12:43:18.981Z,95373.69
2022-10-31T12:45:59.876Z,95365.22
2022-10-31T12:48:38.401Z,95352.66
2022-10-31T12:51:10.917Z,95343.84
2022-10-31T12:53:55.106Z,95339.47
2022-10-31T12:56:48.468Z,95357.13
2022-10-31T12:59:30.223Z,95349.63
2022-10-31T13:02:00.006Z,95348.91
2022-10-31T13:04:52.236Z,95339.63
2022-10-31T13:07:58.622Z,95331.91
2022-10-31T13:10:48.956Z,95329.88
2022-10-31T13:13:25.721Z,95311.22
2022-10-31T13:15:57.689Z,95314.34
2022-10-31T13:18:30.516Z,95309.88
2022-10-31T13:21:00.170Z,95305.06
2022-10-31T13:23:51.766Z,95303.38
2022-10-31T13:26:37.758Z,95295.25
2022-10-31T13:29:24.806Z,95293.56
2022-10-31T13:31:53.832Z,95292.16
2022-10-31T13:34:36.416Z,95285.97
2022-10-31T13:37:15.210Z,95272.38
2022-10-31T13:39:52.831Z,95281.03
2022-10-31T13:42:51.726Z,95263.72
2022-10-31T13:45:21.622Z,95276.53
2022-10-31T13:48:16.078Z,95266.38
2022-10-31T13:50:44.541Z,95266.16
2022-10-31T13:53:23.195Z,95267.66
2022-10-31T13:56:03.617Z,95266.91
2022-10-31T13:58:32.605Z,95257.78
2022-10-31T14:01:11.875Z,95254.41
2022-10-31T14:06:52.144Z,95258.09
2022-10-31T14:09:54.387Z,95247.09
2022-10-31T14:12:37.487Z,95237.81
2022-10-31T14:15:28.740Z,95246.19
2022-10-31T14:18:03.635Z,95247.81
2022-10-31T14:20:41.880Z,95242.75
2022-10-31T14:23:27.576Z,95244.66
2022-10-31T14:25:54.107Z,95247.94
2022-10-31T14:28:47.831Z,95237.94
2022-10-31T14:31:42.087Z,95236.16
2022-10-31T14:34:27.577Z,95243.59
2022-10-31T14:36:59.935Z,95243.41
2022-10-31T14:39:38.634Z,95244.78
2022-10-31T14:42:30.195Z,95236.63
2022-10-31T14:45:08.472Z,95227.97
2022-10-31T14:47:53.430Z,95239.50
2022-10-31T14:50:32.915Z,95223.16
2022-10-31T14:53:02.909Z,95238.81
2022-10-31T14:55:30.453Z,95236.75
2022-10-31T14:58:02.363Z,95229.03
2022-10-31T15:00:32.144Z,95232.66
2022-10-31T15:03:25.839Z,95243.44
2022-10-31T15:05:59.289Z,95247.94
2022-10-31T15:08:39.984Z,95249.13
2022-10-31T15:11:25.637Z,95249.38
2022-10-31T15:13:53.766Z,95259.63
2022-10-31T15:16:24.111Z,95259.28
2022-10-31T15:18:59.901Z,95253.13
2022-10-31T15:21:29.322Z,95269.78
2022-10-31T15:23:58.908Z,95268.56
2022-10-31T15:26:33.676Z,95268.38
2022-10-31T15:29:02.998Z,95258.38
2022-10-31T15:31:31.947Z,95246.81
2022-10-31T15:34:05.198Z,95266.81
2022-10-31T15:36:35.699Z,95259.38
2022-10-31T15:39:04.165Z,95265.19
2022-10-31T15:41:39.503Z,95262.78
2022-10-31T15:44:16.093Z,95281.47
2022-10-31T15:46:42.924Z,95270.38
2022-10-31T15:49:40.972Z,95278.13
2022-10-31T15:52:42.449Z,95283.81
2022-10-31T15:55:11.787Z,95280.06
2022-10-31T15:57:44.905Z,95272.69
2022-10-31T16:00:24.140Z,95281.28
2022-10-31T16:02:50.960Z,95266.56
2022-10-31T16:05:20.236Z,95281.03
2022-10-31T16:07:51.434Z,95281.78
2022-10-31T16:10:26.913Z,95285.38
2022-10-31T16:12:54.439Z,95285.44
2022-10-31T16:15:22.411Z,95281.28
2022-10-31T16:17:51.744Z,95283.09
2022-10-31T16:20:28.492Z,95285.31
2022-10-31T16:22:58.182Z,95288.09
2022-10-31T16:25:29.661Z,95284.06
2022-10-31T16:28:04.483Z,95280.34
2022-10-31T16:30:45.456Z,95288.63
2022-10-31T16:33:30.118Z,95295.91
2022-10-31T16:36:09.491Z,95288.91
2022-10-31T16:38:45.204Z,95289.78
2022-10-31T16:41:11.748Z,95300.41
2022-10-31T16:43:38.305Z,95309.59
2022-10-31T16:46:04.950Z,95292.72
2022-10-31T16:48:31.904Z,95303.75
2022-10-31T16:50:58.417Z,95298.47
2022-10-31T16:53:25.594Z,95292.53
2022-10-31T16:55:56.666Z,95317.00
2022-10-31T16:58:30.689Z,95312.97
2022-10-31T17:00:58.031Z,95323.31
2022-10-31T17:03:24.604Z,95320.78
2022-10-31T17:05:51.519Z,95335.22
2022-10-31T17:08:18.493Z,95344.09
2022-10-31T17:10:48.148Z,95339.16
2022-10-31T17:13:19.698Z,95346.19
2022-10-31T17:15:53.341Z,95353.00
2022-10-31T17:18:24.407Z,95337.03
2022-10-31T17:20:59.940Z,95344.22
2022-10-31T17:23:27.476Z,95346.19
2022-10-31T17:25:54.159Z,95346.91
2022-10-31T17:28:21.016Z,95347.72
2022-10-31T17:30:48.075Z,95358.00
2022-10-31T17:33:16.876Z,95362.16
2022-10-31T17:35:45.084Z,95354.97
2022-10-31T17:38:12.147Z,95356.16
2022-10-31T17:40:40.362Z,95367.47
2022-10-31T17:43:07.236Z,95357.19
2022-10-31T17:45:33.750Z,95364.66
2022-10-31T17:48:00.288Z,95357.09
2022-10-31T17:50:27.567Z,95345.47
2022-10-31T17:52:54.068Z,95359.72
2022-10-31T17:55:21.091Z,95362.66
2022-10-31T17:57:47.809Z,95354.63
2022-10-31T18:00:17.701Z,95352.72
2022-10-31T18:02:44.508Z,95359.16
2022-10-31T18:05:11.555Z,95364.41
2022-10-31T18:07:38.111Z,95369.88
2022-10-31T18:10:05.702Z,95369.09
2022-10-31T18:12:32.511Z,95374.53
2022-10-31T18:14:59.253Z,95380.66
2022-10-31T18:17:25.844Z,95359.59
2022-10-31T18:19:52.379Z,95369.78
2022-10-31T18:22:18.880Z,95375.53
2022-10-31T18:24:45.415Z,95371.00
2022-10-31T18:27:12.136Z,95368.78
2022-10-31T18:29:38.626Z,95365.03
2022-10-31T18:32:09.557Z,95370.66
2022-10-31T18:34:36.825Z,95363.19
2022-10-31T18:37:03.690Z,95379.44
2022-10-31T18:39:30.289Z,95353.09
2022-10-31T18:41:57.381Z,95368.84
2022-10-31T18:44:24.196Z,95368.84
2022-10-31T18:46:50.699Z,95356.91
2022-10-31T18:49:22.608Z,95356.91
2022-10-31T18:51:50.708Z,95360.69
2022-10-31T18:54:17.703Z,95348.59
2022-10-31T18:56:44.855Z,95340.63
2022-10-31T18:59:11.932Z,95342.16
2022-10-31T19:01:39.037Z,95347.53
2022-10-31T19:04:06.123Z,95337.66
2022-10-31T19:06:32.640Z,95345.28
2022-10-31T19:09:01.148Z,95340.88
2022-10-31T19:13:50.386Z,95324.66
2022-10-31T19:16:18.023Z,95318.34
2022-10-31T19:18:44.968Z,95332.25
2022-10-31T19:21:17.892Z,95330.06
2022-10-31T19:23:45.356Z,95338.00
2022-10-31T19:26:12.789Z,95331.66
2022-10-31T19:28:41.095Z,95340.03
2022-10-31T19:31:09.066Z,95334.03
2022-10-31T19:33:36.528Z,95340.81
2022-10-31T19:36:09.705Z,95349.13
2022-10-31T19:38:41.562Z,95344.66
2022-10-31T19:41:11.604Z,95350.69
2022-10-31T19:43:38.783Z,95340.53
2022-10-31T19:46:06.357Z,95337.53
2022-10-31T19:48:36.603Z,95334.13
2022-10-31T19:51:06.384Z,95329.22
2022-10-31T19:53:33.890Z,95336.72
2022-10-31T19:56:01.219Z,95342.47
2022-10-31T19:58:28.529Z,95339.13
2022-10-31T20:00:55.737Z,95341.06
2022-10-31T20:03:22.887Z,95341.81
2022-10-31T20:05:50.642Z,95349.75
2022-10-31T20:08:19.915Z,95336.53
2022-10-31T20:10:57.219Z,95331.22
2022-10-31T20:13:24.928Z,95342.56
2022-10-31T20:15:52.348Z,95341.06
2022-10-31T20:18:19.086Z,95356.91
2022-10-31T20:20:45.822Z,95351.59
2022-10-31T20:23:12.372Z,95354.63
2022-10-31T20:25:47.325Z,95353.91
2022-10-31T20:28:13.851Z,95344.09
2022-10-31T20:30:40.351Z,95354.25
2022-10-31T20:33:07.473Z,95352.38
2022-10-31T20:35:38.900Z,95354.66
2022-10-31T20:38:05.543Z,95359.16
2022-10-31T20:40:33.089Z,95366.69
2022-10-31T20:43:01.196Z,95347.09
2022-10-31T20:45:28.684Z,95355.38
2022-10-31T20:47:55.282Z,95356.53
2022-10-31T20:50:22.271Z,95360.28
2022-10-31T20:52:48.983Z,95360.31
2022-10-31T20:55:16.388Z,95358.41
2022-10-31T20:57:43.136Z,95355.41
2022-10-31T21:00:14.049Z,95356.16
2022-10-31T21:02:44.214Z,95348.59
2022-10-31T21:05:12.404Z,95358.41
2022-10-31T21:07:42.353Z,95351.25
2022-10-31T21:10:14.834Z,95351.63
2022-10-31T21:12:43.223Z,95362.19
2022-10-31T21:15:11.337Z,95347.84
2022-10-31T21:17:38.420Z,95360.31
2022-10-31T21:20:07.279Z,95359.19
2022-10-31T21:22:34.192Z,95360.66
2022-10-31T21:25:01.005Z,95356.13
2022-10-31T21:27:27.810Z,95356.91
2022-10-31T21:29:54.313Z,95356.91
2022-10-31T21:32:21.084Z,95362.19
2022-10-31T21:34:50.090Z,95374.59
2022-10-31T21:37:16.952Z,95371.19
2022-10-31T21:39:48.135Z,95378.75
2022-10-31T21:42:20.532Z,95378.72
2022-10-31T21:44:48.928Z,95371.97
2022-10-31T21:47:15.865Z,95374.94
2022-10-31T21:49:42.540Z,95376.06
2022-10-31T21:52:09.496Z,95373.44
2022-10-31T21:54:37.342Z,95368.91
2022-10-31T21:57:04.116Z,95364.75
2022-10-31T21:59:31.238Z,95367.03
2022-10-31T22:01:59.782Z,95370.41
2022-10-31T22:04:27.242Z,95367.78
2022-10-31T22:06:54.186Z,95376.50
2022-10-31T22:09:20.928Z,95375.75
2022-10-31T22:11:47.672Z,95366.34
2022-10-31T22:14:15.086Z,95371.22
2022-10-31T22:16:42.247Z,95362.91
2022-10-31T22:19:11.895Z,95361.41
2022-10-31T22:21:46.879Z,95375.00
2022-10-31T22:24:14.535Z,95374.25
2022-10-31T22:26:41.194Z,95374.25
2022-10-31T22:29:12.278Z,95375.75
2022-10-31T22:31:44.206Z,95378.00
2022-10-31T22:34:11.803Z,95371.59
2022-10-31T22:36:38.875Z,95372.72
2022-10-31T22:39:06.179Z,95366.72
2022-10-31T22:41:34.976Z,95361.44
2022-10-31T22:44:03.052Z,95357.66
2022-10-31T22:46:31.547Z,95356.13
2022-10-31T22:49:04.608Z,95359.91
2022-10-31T22:51:37.789Z,95360.66
2022-10-31T22:54:05.565Z,95346.34
2022-10-31T22:56:34.145Z,95356.13
2022-10-31T22:59:01.536Z,95359.13
2022-10-31T23:01:31.909Z,95350.47
2022-10-31T23:03:59.117Z,95354.25
2022-10-31T23:06:30.172Z,95347.84
2022-10-31T23:08:57.471Z,95344.81
2022-10-31T23:11:48.704Z,95345.59
2022-10-31T23:14:20.763Z,95349.72
2022-10-31T23:16:51.550Z,95349.75
2022-10-31T23:19:22.859Z,95354.63
2022-10-31T23:21:56.169Z,95348.59
2022-10-31T23:24:29.110Z,95358.41
2022-10-31T23:27:09.148Z,95364.41
2022-10-31T23:29:50.431Z,95364.81
2022-10-31T23:32:21.101Z,95371.94
2022-10-31T23:34:50.455Z,95361.41
2022-10-31T23:37:18.742Z,95369.69
2022-10-31T23:39:45.780Z,95373.84
2022-10-31T23:42:13.895Z,95370.44
2022-10-31T23:44:40.692Z,95362.16
2022-10-31T23:47:07.642Z,95351.59
2022-10-31T23:49:34.701Z,95358.75
2022-10-31T23:52:02.075Z,95344.06
2022-10-31T23:54:28.736Z,95344.81
2022-10-31T23:56:55.981Z,95334.25
2022-10-31T23:59:22.919Z,95335.78
